sensor_id;sensor_type;location;lat;lon;timestamp;P1;durP1;ratioP1;P2;durP2;ratioP2
50683;SDS011;36654;45.042;38.994;2023-04-24T00:00:13;9.07;;;5.28;;
50683;SDS011;36654;45.042;38.994;2023-04-24T00:02:40;10.70;;;5.35;;
50683;SDS011;36654;45.042;38.994;2023-04-24T00:05:10;9.55;;;4.65;;
50683;SDS011;36654;45.042;38.994;2023-04-24T00:07:36;7.70;;;4.50;;
50683;SDS011;36654;45.042;38.994;2023-04-24T00:10:02;7.50;;;4.65;;
50683;SDS011;36654;45.042;38.994;2023-04-24T00:12:28;8.10;;;4.97;;
50683;SDS011;36654;45.042;38.994;2023-04-24T00:14:54;8.55;;;4.85;;
50683;SDS011;36654;45.042;38.994;2023-04-24T00:17:20;6.40;;;4.78;;
50683;SDS011;36654;45.042;38.994;2023-04-24T00:19:46;6.57;;;4.75;;
50683;SDS011;36654;45.042;38.994;2023-04-24T00:22:12;8.35;;;4.28;;
50683;SDS011;36654;45.042;38.994;2023-04-24T00:24:39;9.55;;;5.30;;
50683;SDS011;36654;45.042;38.994;2023-04-24T00:27:05;10.52;;;4.85;;
50683;SDS011;36654;45.042;38.994;2023-04-24T00:29:31;6.80;;;5.28;;
50683;SDS011;36654;45.042;38.994;2023-04-24T00:31:57;8.88;;;5.63;;
50683;SDS011;36654;45.042;38.994;2023-04-24T00:34:23;7.80;;;4.55;;
50683;SDS011;36654;45.042;38.994;2023-04-24T00:36:48;8.55;;;5.03;;
50683;SDS011;36654;45.042;38.994;2023-04-24T00:39:18;8.55;;;4.97;;
50683;SDS011;36654;45.042;38.994;2023-04-24T00:41:44;10.25;;;4.95;;
50683;SDS011;36654;45.042;38.994;2023-04-24T00:44:11;9.43;;;4.53;;
50683;SDS011;36654;45.042;38.994;2023-04-24T00:46:37;8.48;;;4.95;;
50683;SDS011;36654;45.042;38.994;2023-04-24T00:49:03;8.00;;;5.53;;
50683;SDS011;36654;45.042;38.994;2023-04-24T00:51:30;7.70;;;5.25;;
50683;SDS011;36654;45.042;38.994;2023-04-24T00:53:57;8.95;;;5.20;;
50683;SDS011;36654;45.042;38.994;2023-04-24T00:58:52;8.30;;;4.93;;
50683;SDS011;36654;45.042;38.994;2023-04-24T01:01:19;7.28;;;4.80;;
50683;SDS011;36654;45.042;38.994;2023-04-24T01:03:46;6.20;;;5.25;;
50683;SDS011;36654;45.042;38.994;2023-04-24T01:06:12;9.50;;;5.28;;
50683;SDS011;36654;45.042;38.994;2023-04-24T01:08:39;7.40;;;5.10;;
50683;SDS011;36654;45.042;38.994;2023-04-24T01:11:06;7.70;;;4.82;;
50683;SDS011;36654;45.042;38.994;2023-04-24T01:13:32;9.57;;;5.50;;
50683;SDS011;36654;45.042;38.994;2023-04-24T01:15:58;12.50;;;5.72;;
50683;SDS011;36654;45.042;38.994;2023-04-24T01:18:25;9.95;;;5.40;;
50683;SDS011;36654;45.042;38.994;2023-04-24T01:20:53;11.18;;;5.07;;
50683;SDS011;36654;45.042;38.994;2023-04-24T01:23:22;7.93;;;4.95;;
50683;SDS011;36654;45.042;38.994;2023-04-24T01:25:48;12.02;;;5.25;;
50683;SDS011;36654;45.042;38.994;2023-04-24T01:28:15;9.02;;;5.45;;
50683;SDS011;36654;45.042;38.994;2023-04-24T01:30:41;6.28;;;4.88;;
50683;SDS011;36654;45.042;38.994;2023-04-24T01:33:07;9.00;;;4.88;;
50683;SDS011;36654;45.042;38.994;2023-04-24T01:35:33;7.75;;;5.45;;
50683;SDS011;36654;45.042;38.994;2023-04-24T01:38:01;8.70;;;5.57;;
50683;SDS011;36654;45.042;38.994;2023-04-24T01:40:27;8.93;;;5.25;;
50683;SDS011;36654;45.042;38.994;2023-04-24T01:42:52;8.20;;;5.30;;
50683;SDS011;36654;45.042;38.994;2023-04-24T01:45:18;10.68;;;5.57;;
50683;SDS011;36654;45.042;38.994;2023-04-24T01:47:44;7.35;;;4.65;;
50683;SDS011;36654;45.042;38.994;2023-04-24T01:50:10;7.07;;;5.57;;
50683;SDS011;36654;45.042;38.994;2023-04-24T01:52:36;9.65;;;5.50;;
50683;SDS011;36654;45.042;38.994;2023-04-24T01:55:02;11.63;;;5.07;;
50683;SDS011;36654;45.042;38.994;2023-04-24T01:57:30;11.52;;;5.43;;
50683;SDS011;36654;45.042;38.994;2023-04-24T01:59:56;6.57;;;5.05;;
50683;SDS011;36654;45.042;38.994;2023-04-24T02:02:22;8.02;;;5.45;;
50683;SDS011;36654;45.042;38.994;2023-04-24T02:04:55;9.57;;;5.82;;
50683;SDS011;36654;45.042;38.994;2023-04-24T02:07:21;10.00;;;6.35;;
50683;SDS011;36654;45.042;38.994;2023-04-24T02:09:46;10.38;;;6.95;;
50683;SDS011;36654;45.042;38.994;2023-04-24T02:12:12;8.20;;;5.53;;
50683;SDS011;36654;45.042;38.994;2023-04-24T02:14:38;10.15;;;5.70;;
50683;SDS011;36654;45.042;38.994;2023-04-24T02:17:04;12.00;;;6.32;;
50683;SDS011;36654;45.042;38.994;2023-04-24T02:19:30;12.57;;;7.03;;
50683;SDS011;36654;45.042;38.994;2023-04-24T02:21:56;11.77;;;6.05;;
50683;SDS011;36654;45.042;38.994;2023-04-24T02:24:21;8.57;;;5.65;;
50683;SDS011;36654;45.042;38.994;2023-04-24T02:26:47;8.88;;;6.07;;
50683;SDS011;36654;45.042;38.994;2023-04-24T02:29:13;8.63;;;5.80;;
50683;SDS011;36654;45.042;38.994;2023-04-24T02:31:38;11.02;;;6.25;;
50683;SDS011;36654;45.042;38.994;2023-04-24T02:34:04;13.00;;;6.93;;
50683;SDS011;36654;45.042;38.994;2023-04-24T02:36:29;12.27;;;6.20;;
50683;SDS011;36654;45.042;38.994;2023-04-24T02:38:55;14.55;;;6.88;;
50683;SDS011;36654;45.042;38.994;2023-04-24T02:41:21;10.20;;;6.55;;
50683;SDS011;36654;45.042;38.994;2023-04-24T02:43:46;12.98;;;6.28;;
50683;SDS011;36654;45.042;38.994;2023-04-24T02:46:12;9.90;;;6.80;;
50683;SDS011;36654;45.042;38.994;2023-04-24T02:48:37;8.73;;;5.88;;
50683;SDS011;36654;45.042;38.994;2023-04-24T02:51:03;8.65;;;6.18;;
50683;SDS011;36654;45.042;38.994;2023-04-24T02:53:29;8.38;;;6.00;;
50683;SDS011;36654;45.042;38.994;2023-04-24T02:55:57;10.82;;;5.85;;
50683;SDS011;36654;45.042;38.994;2023-04-24T02:58:23;8.60;;;5.45;;
50683;SDS011;36654;45.042;38.994;2023-04-24T03:00:53;10.80;;;5.90;;
50683;SDS011;36654;45.042;38.994;2023-04-24T03:03:20;12.80;;;5.75;;
50683;SDS011;36654;45.042;38.994;2023-04-24T03:05:46;9.32;;;6.18;;
50683;SDS011;36654;45.042;38.994;2023-04-24T03:08:12;14.43;;;6.68;;
50683;SDS011;36654;45.042;38.994;2023-04-24T03:10:37;11.93;;;6.20;;
50683;SDS011;36654;45.042;38.994;2023-04-24T03:13:03;15.32;;;6.00;;
50683;SDS011;36654;45.042;38.994;2023-04-24T03:15:29;12.57;;;6.40;;
50683;SDS011;36654;45.042;38.994;2023-04-24T03:17:54;11.48;;;7.15;;
50683;SDS011;36654;45.042;38.994;2023-04-24T03:20:20;10.35;;;6.40;;
50683;SDS011;36654;45.042;38.994;2023-04-24T03:22:46;16.42;;;6.88;;
50683;SDS011;36654;45.042;38.994;2023-04-24T03:25:12;10.65;;;6.18;;
50683;SDS011;36654;45.042;38.994;2023-04-24T03:27:37;10.75;;;6.50;;
50683;SDS011;36654;45.042;38.994;2023-04-24T03:30:04;10.32;;;6.03;;
50683;SDS011;36654;45.042;38.994;2023-04-24T03:32:33;15.43;;;7.43;;
50683;SDS011;36654;45.042;38.994;2023-04-24T03:34:59;10.48;;;6.05;;
50683;SDS011;36654;45.042;38.994;2023-04-24T03:37:25;13.40;;;6.30;;
50683;SDS011;36654;45.042;38.994;2023-04-24T03:39:51;15.15;;;7.10;;
50683;SDS011;36654;45.042;38.994;2023-04-24T03:42:17;10.43;;;6.15;;
50683;SDS011;36654;45.042;38.994;2023-04-24T03:44:43;12.18;;;6.13;;
50683;SDS011;36654;45.042;38.994;2023-04-24T03:47:08;13.25;;;6.50;;
50683;SDS011;36654;45.042;38.994;2023-04-24T03:49:34;13.90;;;7.07;;
50683;SDS011;36654;45.042;38.994;2023-04-24T03:51:59;10.18;;;6.40;;
50683;SDS011;36654;45.042;38.994;2023-04-24T03:54:25;15.25;;;6.80;;
50683;SDS011;36654;45.042;38.994;2023-04-24T03:56:51;10.57;;;6.85;;
50683;SDS011;36654;45.042;38.994;2023-04-24T03:59:16;13.88;;;6.82;;
50683;SDS011;36654;45.042;38.994;2023-04-24T04:01:42;15.52;;;7.10;;
50683;SDS011;36654;45.042;38.994;2023-04-24T04:04:07;19.70;;;7.47;;
50683;SDS011;36654;45.042;38.994;2023-04-24T04:06:33;18.02;;;7.65;;
50683;SDS011;36654;45.042;38.994;2023-04-24T04:09:01;21.90;;;7.03;;
50683;SDS011;36654;45.042;38.994;2023-04-24T04:11:28;15.60;;;7.32;;
50683;SDS011;36654;45.042;38.994;2023-04-24T04:13:54;17.85;;;7.85;;
50683;SDS011;36654;45.042;38.994;2023-04-24T04:16:20;13.68;;;6.80;;
50683;SDS011;36654;45.042;38.994;2023-04-24T04:18:46;14.00;;;7.30;;
50683;SDS011;36654;45.042;38.994;2023-04-24T04:21:11;16.15;;;7.05;;
50683;SDS011;36654;45.042;38.994;2023-04-24T04:23:37;16.95;;;7.57;;
50683;SDS011;36654;45.042;38.994;2023-04-24T04:26:03;13.68;;;7.15;;
50683;SDS011;36654;45.042;38.994;2023-04-24T04:28:29;14.30;;;6.93;;
50683;SDS011;36654;45.042;38.994;2023-04-24T04:30:58;10.75;;;6.40;;
50683;SDS011;36654;45.042;38.994;2023-04-24T04:33:24;14.85;;;7.95;;
50683;SDS011;36654;45.042;38.994;2023-04-24T04:35:51;12.07;;;7.05;;
50683;SDS011;36654;45.042;38.994;2023-04-24T04:38:21;11.82;;;6.38;;
50683;SDS011;36654;45.042;38.994;2023-04-24T04:40:47;21.35;;;7.18;;
50683;SDS011;36654;45.042;38.994;2023-04-24T04:43:13;16.85;;;7.07;;
50683;SDS011;36654;45.042;38.994;2023-04-24T04:45:41;11.82;;;6.63;;
50683;SDS011;36654;45.042;38.994;2023-04-24T04:48:08;11.55;;;6.60;;
50683;SDS011;36654;45.042;38.994;2023-04-24T04:50:37;17.13;;;6.80;;
50683;SDS011;36654;45.042;38.994;2023-04-24T04:53:03;14.52;;;6.93;;
50683;SDS011;36654;45.042;38.994;2023-04-24T04:55:29;15.98;;;7.57;;
50683;SDS011;36654;45.042;38.994;2023-04-24T04:57:55;19.17;;;8.52;;
50683;SDS011;36654;45.042;38.994;2023-04-24T05:00:21;12.23;;;7.20;;
50683;SDS011;36654;45.042;38.994;2023-04-24T05:02:50;15.02;;;8.10;;
50683;SDS011;36654;45.042;38.994;2023-04-24T05:05:16;11.98;;;7.88;;
50683;SDS011;36654;45.042;38.994;2023-04-24T05:07:42;16.80;;;8.73;;
50683;SDS011;36654;45.042;38.994;2023-04-24T05:10:09;16.15;;;8.35;;
50683;SDS011;36654;45.042;38.994;2023-04-24T05:12:34;11.38;;;6.55;;
50683;SDS011;36654;45.042;38.994;2023-04-24T05:15:00;16.63;;;7.57;;
50683;SDS011;36654;45.042;38.994;2023-04-24T05:17:26;14.18;;;7.18;;
50683;SDS011;36654;45.042;38.994;2023-04-24T05:19:51;11.82;;;6.72;;
50683;SDS011;36654;45.042;38.994;2023-04-24T05:22:17;15.45;;;6.35;;
50683;SDS011;36654;45.042;38.994;2023-04-24T05:24:45;12.15;;;6.82;;
50683;SDS011;36654;45.042;38.994;2023-04-24T05:27:11;13.10;;;6.82;;
50683;SDS011;36654;45.042;38.994;2023-04-24T05:29:37;12.98;;;7.07;;
50683;SDS011;36654;45.042;38.994;2023-04-24T05:32:02;16.60;;;8.02;;
50683;SDS011;36654;45.042;38.994;2023-04-24T05:34:32;16.48;;;7.43;;
50683;SDS011;36654;45.042;38.994;2023-04-24T05:36:58;22.98;;;7.50;;
50683;SDS011;36654;45.042;38.994;2023-04-24T05:39:24;15.80;;;6.53;;
50683;SDS011;36654;45.042;38.994;2023-04-24T05:44:18;15.02;;;6.95;;
50683;SDS011;36654;45.042;38.994;2023-04-24T05:46:45;15.95;;;7.72;;
50683;SDS011;36654;45.042;38.994;2023-04-24T05:49:20;15.55;;;7.60;;
50683;SDS011;36654;45.042;38.994;2023-04-24T05:51:48;15.27;;;7.82;;
50683;SDS011;36654;45.042;38.994;2023-04-24T05:54:17;16.55;;;7.80;;
50683;SDS011;36654;45.042;38.994;2023-04-24T05:56:42;17.23;;;8.18;;
50683;SDS011;36654;45.042;38.994;2023-04-24T05:59:08;25.17;;;9.05;;
50683;SDS011;36654;45.042;38.994;2023-04-24T06:01:34;20.08;;;9.05;;
50683;SDS011;36654;45.042;38.994;2023-04-24T06:04:04;29.25;;;10.98;;
50683;SDS011;36654;45.042;38.994;2023-04-24T06:08:55;22.80;;;11.05;;
50683;SDS011;36654;45.042;38.994;2023-04-24T06:11:22;23.05;;;10.63;;
50683;SDS011;36654;45.042;38.994;2023-04-24T06:13:47;21.30;;;10.80;;
50683;SDS011;36654;45.042;38.994;2023-04-24T06:16:13;20.73;;;10.25;;
50683;SDS011;36654;45.042;38.994;2023-04-24T06:18:39;24.67;;;10.88;;
50683;SDS011;36654;45.042;38.994;2023-04-24T06:21:05;19.42;;;11.30;;
50683;SDS011;36654;45.042;38.994;2023-04-24T06:23:31;21.80;;;10.45;;
50683;SDS011;36654;45.042;38.994;2023-04-24T06:25:58;20.50;;;9.98;;
50683;SDS011;36654;45.042;38.994;2023-04-24T06:28:24;19.75;;;9.93;;
50683;SDS011;36654;45.042;38.994;2023-04-24T06:30:50;20.17;;;10.70;;
50683;SDS011;36654;45.042;38.994;2023-04-24T06:33:16;17.10;;;9.52;;
50683;SDS011;36654;45.042;38.994;2023-04-24T06:35:42;17.98;;;9.40;;
50683;SDS011;36654;45.042;38.994;2023-04-24T06:38:07;23.27;;;11.73;;
50683;SDS011;36654;45.042;38.994;2023-04-24T06:40:33;18.50;;;9.57;;
50683;SDS011;36654;45.042;38.994;2023-04-24T06:43:01;22.25;;;9.95;;
50683;SDS011;36654;45.042;38.994;2023-04-24T06:45:28;17.17;;;9.77;;
50683;SDS011;36654;45.042;38.994;2023-04-24T06:47:54;17.95;;;9.35;;
50683;SDS011;36654;45.042;38.994;2023-04-24T06:50:20;17.40;;;10.85;;
50683;SDS011;36654;45.042;38.994;2023-04-24T06:52:46;23.48;;;10.30;;
50683;SDS011;36654;45.042;38.994;2023-04-24T06:55:11;17.65;;;10.05;;
50683;SDS011;36654;45.042;38.994;2023-04-24T06:57:37;18.42;;;10.57;;
50683;SDS011;36654;45.042;38.994;2023-04-24T07:00:05;17.90;;;11.38;;
50683;SDS011;36654;45.042;38.994;2023-04-24T07:02:34;20.45;;;11.40;;
50683;SDS011;36654;45.042;38.994;2023-04-24T07:05:00;23.67;;;10.13;;
50683;SDS011;36654;45.042;38.994;2023-04-24T07:07:26;17.50;;;10.95;;
50683;SDS011;36654;45.042;38.994;2023-04-24T07:09:52;22.70;;;10.13;;
50683;SDS011;36654;45.042;38.994;2023-04-24T07:12:19;22.75;;;11.73;;
50683;SDS011;36654;45.042;38.994;2023-04-24T07:14:46;19.98;;;10.73;;
50683;SDS011;36654;45.042;38.994;2023-04-24T07:17:15;43.03;;;20.75;;
50683;SDS011;36654;45.042;38.994;2023-04-24T07:19:41;15.95;;;10.32;;
50683;SDS011;36654;45.042;38.994;2023-04-24T07:22:07;19.52;;;10.43;;
50683;SDS011;36654;45.042;38.994;2023-04-24T07:24:36;20.98;;;11.07;;
50683;SDS011;36654;45.042;38.994;2023-04-24T07:27:05;21.77;;;11.02;;
50683;SDS011;36654;45.042;38.994;2023-04-24T07:29:30;19.95;;;10.48;;
50683;SDS011;36654;45.042;38.994;2023-04-24T07:31:56;17.35;;;10.93;;
50683;SDS011;36654;45.042;38.994;2023-04-24T07:34:22;23.80;;;11.30;;
50683;SDS011;36654;45.042;38.994;2023-04-24T07:36:50;25.88;;;11.95;;
50683;SDS011;36654;45.042;38.994;2023-04-24T07:39:16;17.88;;;12.27;;
50683;SDS011;36654;45.042;38.994;2023-04-24T07:41:42;24.40;;;12.98;;
50683;SDS011;36654;45.042;38.994;2023-04-24T07:44:07;20.58;;;12.00;;
50683;SDS011;36654;45.042;38.994;2023-04-24T07:46:33;23.15;;;10.98;;
50683;SDS011;36654;45.042;38.994;2023-04-24T07:48:58;24.52;;;10.77;;
50683;SDS011;36654;45.042;38.994;2023-04-24T07:51:27;15.23;;;8.30;;
50683;SDS011;36654;45.042;38.994;2023-04-24T07:53:56;12.98;;;8.02;;
50683;SDS011;36654;45.042;38.994;2023-04-24T07:56:21;13.02;;;7.43;;
50683;SDS011;36654;45.042;38.994;2023-04-24T07:58:47;22.08;;;7.50;;
50683;SDS011;36654;45.042;38.994;2023-04-24T08:01:12;14.38;;;7.38;;
50683;SDS011;36654;45.042;38.994;2023-04-24T08:03:38;17.23;;;7.32;;
50683;SDS011;36654;45.042;38.994;2023-04-24T08:06:04;19.45;;;8.35;;
50683;SDS011;36654;45.042;38.994;2023-04-24T08:08:29;17.38;;;7.78;;
50683;SDS011;36654;45.042;38.994;2023-04-24T08:10:55;24.38;;;14.05;;
50683;SDS011;36654;45.042;38.994;2023-04-24T08:13:21;16.67;;;7.80;;
50683;SDS011;36654;45.042;38.994;2023-04-24T08:15:47;16.00;;;8.45;;
50683;SDS011;36654;45.042;38.994;2023-04-24T08:18:12;17.05;;;8.90;;
50683;SDS011;36654;45.042;38.994;2023-04-24T08:20:41;18.73;;;8.77;;
50683;SDS011;36654;45.042;38.994;2023-04-24T08:23:07;15.20;;;9.07;;
50683;SDS011;36654;45.042;38.994;2023-04-24T08:25:34;19.05;;;8.73;;
50683;SDS011;36654;45.042;38.994;2023-04-24T08:28:02;19.42;;;9.77;;
50683;SDS011;36654;45.042;38.994;2023-04-24T08:30:29;24.88;;;12.02;;
50683;SDS011;36654;45.042;38.994;2023-04-24T08:32:55;28.10;;;13.02;;
50683;SDS011;36654;45.042;38.994;2023-04-24T08:35:21;21.35;;;12.95;;
50683;SDS011;36654;45.042;38.994;2023-04-24T08:37:48;31.23;;;13.23;;
50683;SDS011;36654;45.042;38.994;2023-04-24T08:40:14;25.60;;;12.95;;
50683;SDS011;36654;45.042;38.994;2023-04-24T08:42:42;22.02;;;13.25;;
50683;SDS011;36654;45.042;38.994;2023-04-24T08:45:09;20.25;;;13.10;;
50683;SDS011;36654;45.042;38.994;2023-04-24T08:47:39;21.92;;;13.18;;
50683;SDS011;36654;45.042;38.994;2023-04-24T08:50:06;18.10;;;11.77;;
50683;SDS011;36654;45.042;38.994;2023-04-24T08:52:33;20.00;;;11.70;;
50683;SDS011;36654;45.042;38.994;2023-04-24T08:55:00;19.88;;;12.20;;
50683;SDS011;36654;45.042;38.994;2023-04-24T08:57:26;22.33;;;13.23;;
50683;SDS011;36654;45.042;38.994;2023-04-24T08:59:53;22.15;;;12.80;;
50683;SDS011;36654;45.042;38.994;2023-04-24T09:02:20;18.90;;;11.27;;
50683;SDS011;36654;45.042;38.994;2023-04-24T09:04:46;20.17;;;12.60;;
50683;SDS011;36654;45.042;38.994;2023-04-24T09:07:12;22.10;;;12.38;;
50683;SDS011;36654;45.042;38.994;2023-04-24T09:09:39;17.20;;;11.25;;
50683;SDS011;36654;45.042;38.994;2023-04-24T09:12:06;21.52;;;12.65;;
50683;SDS011;36654;45.042;38.994;2023-04-24T09:14:34;22.73;;;12.75;;
50683;SDS011;36654;45.042;38.994;2023-04-24T09:17:01;20.08;;;12.68;;
50683;SDS011;36654;45.042;38.994;2023-04-24T09:19:28;26.33;;;14.00;;
50683;SDS011;36654;45.042;38.994;2023-04-24T09:21:53;22.17;;;13.63;;
50683;SDS011;36654;45.042;38.994;2023-04-24T09:24:20;23.90;;;13.70;;
50683;SDS011;36654;45.042;38.994;2023-04-24T09:26:55;24.77;;;14.02;;
50683;SDS011;36654;45.042;38.994;2023-04-24T09:29:23;28.55;;;14.85;;
50683;SDS011;36654;45.042;38.994;2023-04-24T09:31:49;24.08;;;14.45;;
50683;SDS011;36654;45.042;38.994;2023-04-24T09:34:18;30.02;;;15.68;;
50683;SDS011;36654;45.042;38.994;2023-04-24T09:36:47;32.15;;;16.75;;
50683;SDS011;36654;45.042;38.994;2023-04-24T09:39:14;26.50;;;16.85;;
50683;SDS011;36654;45.042;38.994;2023-04-24T09:41:51;25.08;;;16.75;;
50683;SDS011;36654;45.042;38.994;2023-04-24T09:44:27;29.52;;;16.20;;
50683;SDS011;36654;45.042;38.994;2023-04-24T09:49:28;27.67;;;17.08;;
50683;SDS011;36654;45.042;38.994;2023-04-24T09:52:03;27.15;;;16.45;;
50683;SDS011;36654;45.042;38.994;2023-04-24T09:54:30;27.60;;;15.73;;
50683;SDS011;36654;45.042;38.994;2023-04-24T09:56:55;24.23;;;15.27;;
50683;SDS011;36654;45.042;38.994;2023-04-24T09:59:22;25.77;;;15.10;;
50683;SDS011;36654;45.042;38.994;2023-04-24T10:01:48;22.70;;;14.98;;
50683;SDS011;36654;45.042;38.994;2023-04-24T10:04:22;22.63;;;14.32;;
50683;SDS011;36654;45.042;38.994;2023-04-24T10:06:49;23.27;;;13.98;;
50683;SDS011;36654;45.042;38.994;2023-04-24T10:09:21;22.70;;;14.32;;
50683;SDS011;36654;45.042;38.994;2023-04-24T10:11:49;25.40;;;14.13;;
50683;SDS011;36654;45.042;38.994;2023-04-24T10:14:16;20.42;;;13.02;;
50683;SDS011;36654;45.042;38.994;2023-04-24T10:16:45;23.73;;;14.07;;
50683;SDS011;36654;45.042;38.994;2023-04-24T10:19:12;23.30;;;14.88;;
50683;SDS011;36654;45.042;38.994;2023-04-24T10:21:38;23.20;;;14.70;;
50683;SDS011;36654;45.042;38.994;2023-04-24T10:24:08;23.95;;;13.88;;
50683;SDS011;36654;45.042;38.994;2023-04-24T10:26:35;21.50;;;12.77;;
50683;SDS011;36654;45.042;38.994;2023-04-24T10:29:02;21.65;;;13.93;;
50683;SDS011;36654;45.042;38.994;2023-04-24T10:31:31;24.85;;;14.15;;
50683;SDS011;36654;45.042;38.994;2023-04-24T10:33:58;26.35;;;14.95;;
50683;SDS011;36654;45.042;38.994;2023-04-24T10:36:26;23.65;;;14.38;;
50683;SDS011;36654;45.042;38.994;2023-04-24T10:38:54;23.75;;;14.05;;
50683;SDS011;36654;45.042;38.994;2023-04-24T10:41:21;20.83;;;14.38;;
50683;SDS011;36654;45.042;38.994;2023-04-24T10:44:10;24.55;;;14.90;;
50683;SDS011;36654;45.042;38.994;2023-04-24T10:46:37;24.20;;;13.98;;
50683;SDS011;36654;45.042;38.994;2023-04-24T10:49:05;20.55;;;13.68;;
50683;SDS011;36654;45.042;38.994;2023-04-24T10:51:50;24.10;;;14.23;;
50683;SDS011;36654;45.042;38.994;2023-04-24T10:54:24;24.05;;;15.13;;
50683;SDS011;36654;45.042;38.994;2023-04-24T10:56:50;23.98;;;14.63;;
50683;SDS011;36654;45.042;38.994;2023-04-24T10:59:35;23.40;;;15.15;;
50683;SDS011;36654;45.042;38.994;2023-04-24T11:02:02;23.30;;;13.98;;
50683;SDS011;36654;45.042;38.994;2023-04-24T11:04:31;27.50;;;16.30;;
50683;SDS011;36654;45.042;38.994;2023-04-24T11:06:58;23.75;;;15.75;;
50683;SDS011;36654;45.042;38.994;2023-04-24T11:09:26;26.00;;;14.20;;
50683;SDS011;36654;45.042;38.994;2023-04-24T11:12:02;19.95;;;13.55;;
50683;SDS011;36654;45.042;38.994;2023-04-24T11:14:58;21.10;;;14.25;;
50683;SDS011;36654;45.042;38.994;2023-04-24T11:17:33;24.10;;;14.05;;
50683;SDS011;36654;45.042;38.994;2023-04-24T11:20:05;25.88;;;14.25;;
50683;SDS011;36654;45.042;38.994;2023-04-24T11:22:34;26.88;;;15.45;;
50683;SDS011;36654;45.042;38.994;2023-04-24T11:25:01;20.65;;;14.35;;
50683;SDS011;36654;45.042;38.994;2023-04-24T11:27:34;23.38;;;15.52;;
50683;SDS011;36654;45.042;38.994;2023-04-24T11:30:05;22.83;;;13.88;;
50683;SDS011;36654;45.042;38.994;2023-04-24T11:35:14;22.17;;;15.23;;
50683;SDS011;36654;45.042;38.994;2023-04-24T11:37:46;23.73;;;14.57;;
50683;SDS011;36654;45.042;38.994;2023-04-24T11:40:16;23.55;;;15.95;;
50683;SDS011;36654;45.042;38.994;2023-04-24T11:42:46;25.10;;;14.48;;
50683;SDS011;36654;45.042;38.994;2023-04-24T11:47:40;27.25;;;15.77;;
50683;SDS011;36654;45.042;38.994;2023-04-24T11:50:10;24.38;;;16.35;;
50683;SDS011;36654;45.042;38.994;2023-04-24T11:52:40;25.83;;;16.00;;
50683;SDS011;36654;45.042;38.994;2023-04-24T11:57:40;25.38;;;15.73;;
50683;SDS011;36654;45.042;38.994;2023-04-24T12:00:14;27.25;;;16.35;;
50683;SDS011;36654;45.042;38.994;2023-04-24T12:02:51;23.42;;;14.85;;
50683;SDS011;36654;45.042;38.994;2023-04-24T12:05:20;26.05;;;16.20;;
50683;SDS011;36654;45.042;38.994;2023-04-24T12:07:50;26.48;;;16.90;;
50683;SDS011;36654;45.042;38.994;2023-04-24T12:10:23;28.13;;;16.70;;
50683;SDS011;36654;45.042;38.994;2023-04-24T12:12:50;25.55;;;15.77;;
50683;SDS011;36654;45.042;38.994;2023-04-24T12:15:17;27.30;;;17.15;;
50683;SDS011;36654;45.042;38.994;2023-04-24T12:17:44;26.08;;;15.82;;
50683;SDS011;36654;45.042;38.994;2023-04-24T12:20:10;30.88;;;16.83;;
50683;SDS011;36654;45.042;38.994;2023-04-24T12:22:44;28.73;;;16.23;;
50683;SDS011;36654;45.042;38.994;2023-04-24T12:25:11;25.10;;;15.27;;
50683;SDS011;36654;45.042;38.994;2023-04-24T12:27:37;26.77;;;16.50;;
50683;SDS011;36654;45.042;38.994;2023-04-24T12:30:04;26.95;;;16.38;;
50683;SDS011;36654;45.042;38.994;2023-04-24T12:32:31;25.77;;;16.95;;
50683;SDS011;36654;45.042;38.994;2023-04-24T12:34:57;29.15;;;17.67;;
50683;SDS011;36654;45.042;38.994;2023-04-24T12:37:24;23.10;;;15.15;;
50683;SDS011;36654;45.042;38.994;2023-04-24T12:40:06;25.63;;;14.70;;
50683;SDS011;36654;45.042;38.994;2023-04-24T12:42:35;29.48;;;15.20;;
50683;SDS011;36654;45.042;38.994;2023-04-24T12:45:02;23.58;;;14.63;;
50683;SDS011;36654;45.042;38.994;2023-04-24T12:49:56;28.15;;;15.75;;
50683;SDS011;36654;45.042;38.994;2023-04-24T12:52:22;25.60;;;14.40;;
50683;SDS011;36654;45.042;38.994;2023-04-24T12:54:54;25.85;;;14.70;;
50683;SDS011;36654;45.042;38.994;2023-04-24T12:57:22;24.33;;;15.48;;
50683;SDS011;36654;45.042;38.994;2023-04-24T12:59:48;24.88;;;16.67;;
50683;SDS011;36654;45.042;38.994;2023-04-24T13:02:14;23.92;;;14.88;;
50683;SDS011;36654;45.042;38.994;2023-04-24T13:04:43;22.25;;;14.98;;
50683;SDS011;36654;45.042;38.994;2023-04-24T13:07:11;24.38;;;14.52;;
50683;SDS011;36654;45.042;38.994;2023-04-24T13:09:37;24.45;;;15.70;;
50683;SDS011;36654;45.042;38.994;2023-04-24T13:12:03;25.10;;;15.15;;
50683;SDS011;36654;45.042;38.994;2023-04-24T13:14:30;21.50;;;14.45;;
50683;SDS011;36654;45.042;38.994;2023-04-24T13:16:56;23.98;;;14.80;;
50683;SDS011;36654;45.042;38.994;2023-04-24T13:19:24;27.15;;;16.63;;
50683;SDS011;36654;45.042;38.994;2023-04-24T13:21:51;26.25;;;14.65;;
50683;SDS011;36654;45.042;38.994;2023-04-24T13:24:17;22.85;;;15.18;;
50683;SDS011;36654;45.042;38.994;2023-04-24T13:26:43;26.33;;;15.45;;
50683;SDS011;36654;45.042;38.994;2023-04-24T13:29:09;25.35;;;14.88;;
50683;SDS011;36654;45.042;38.994;2023-04-24T13:31:35;26.33;;;16.70;;
50683;SDS011;36654;45.042;38.994;2023-04-24T13:34:01;24.25;;;15.27;;
50683;SDS011;36654;45.042;38.994;2023-04-24T13:36:28;25.55;;;15.98;;
50683;SDS011;36654;45.042;38.994;2023-04-24T13:38:54;24.50;;;16.13;;
50683;SDS011;36654;45.042;38.994;2023-04-24T13:41:19;25.35;;;16.23;;
50683;SDS011;36654;45.042;38.994;2023-04-24T13:43:45;21.55;;;15.60;;
50683;SDS011;36654;45.042;38.994;2023-04-24T13:46:10;31.20;;;16.05;;
50683;SDS011;36654;45.042;38.994;2023-04-24T13:48:36;24.60;;;16.52;;
50683;SDS011;36654;45.042;38.994;2023-04-24T13:51:02;25.48;;;15.95;;
50683;SDS011;36654;45.042;38.994;2023-04-24T13:53:28;27.23;;;16.35;;
50683;SDS011;36654;45.042;38.994;2023-04-24T13:55:53;26.20;;;16.90;;
50683;SDS011;36654;45.042;38.994;2023-04-24T13:58:19;22.70;;;14.95;;
50683;SDS011;36654;45.042;38.994;2023-04-24T14:00:45;30.15;;;17.65;;
50683;SDS011;36654;45.042;38.994;2023-04-24T14:03:11;23.63;;;15.68;;
50683;SDS011;36654;45.042;38.994;2023-04-24T14:05:37;26.50;;;16.63;;
50683;SDS011;36654;45.042;38.994;2023-04-24T14:08:02;24.20;;;16.60;;
50683;SDS011;36654;45.042;38.994;2023-04-24T14:10:28;27.52;;;17.27;;
50683;SDS011;36654;45.042;38.994;2023-04-24T14:12:53;25.02;;;16.60;;
50683;SDS011;36654;45.042;38.994;2023-04-24T14:15:19;23.25;;;17.35;;
50683;SDS011;36654;45.042;38.994;2023-04-24T14:17:45;27.95;;;16.55;;
50683;SDS011;36654;45.042;38.994;2023-04-24T14:20:12;27.35;;;16.25;;
50683;SDS011;36654;45.042;38.994;2023-04-24T14:22:37;25.08;;;15.35;;
50683;SDS011;36654;45.042;38.994;2023-04-24T14:25:04;23.40;;;15.88;;
50683;SDS011;36654;45.042;38.994;2023-04-24T14:27:30;25.73;;;15.95;;
50683;SDS011;36654;45.042;38.994;2023-04-24T14:29:57;27.40;;;15.48;;
50683;SDS011;36654;45.042;38.994;2023-04-24T14:32:23;27.77;;;16.42;;
50683;SDS011;36654;45.042;38.994;2023-04-24T14:34:48;26.13;;;16.95;;